createdAt,value
2023-10-01T00:01:14.960Z,64.69
2023-10-01T00:04:18.922Z,63.99
2023-10-01T00:07:22.067Z,63.17
2023-10-01T00:10:27.082Z,62.65
2023-10-01T00:13:30.538Z,62.03
2023-10-01T00:16:33.789Z,62.23
2023-10-01T00:19:39.972Z,62.73
2023-10-01T00:22:43.043Z,62.68
2023-10-01T00:25:47.125Z,61.73
2023-10-01T00:28:53.221Z,61.43
2023-10-01T00:31:56.639Z,61.68
2023-10-01T00:35:00.940Z,60.47
2023-10-01T00:38:03.862Z,60.47
2023-10-01T00:41:09.919Z,59.56
2023-10-01T00:44:14.582Z,59.94
2023-10-01T00:47:21.706Z,59.27
2023-10-01T00:50:24.905Z,58.71
2023-10-01T00:53:29.092Z,58.85
2023-10-01T00:56:32.669Z,58.19
2023-10-01T00:59:37.194Z,57.83
2023-10-01T01:02:47.711Z,58.17
2023-10-01T01:06:01.187Z,57.99
2023-10-01T01:09:11.849Z,57.20
2023-10-01T01:12:16.797Z,57.46
2023-10-01T01:15:22.759Z,58.09
2023-10-01T01:18:27.909Z,57.60
2023-10-01T01:21:32.976Z,57.86
2023-10-01T01:24:37.427Z,57.43
2023-10-01T01:27:41.602Z,57.16
2023-10-01T01:30:49.014Z,57.22
2023-10-01T01:33:57.395Z,57.83
2023-10-01T01:37:00.651Z,58.09
2023-10-01T01:40:14.746Z,57.71
2023-10-01T01:43:21.477Z,58.15
2023-10-01T01:46:24.680Z,58.75
2023-10-01T01:49:27.702Z,58.63
2023-10-01T01:52:30.792Z,58.78
2023-10-01T01:55:36.002Z,59.23
2023-10-01T01:58:45.280Z,58.92
2023-10-01T02:01:50.682Z,58.38
2023-10-01T02:05:10.273Z,58.07
2023-10-01T02:08:25.162Z,58.33
2023-10-01T02:11:34.139Z,58.79
2023-10-01T02:14:38.988Z,58.23
2023-10-01T02:17:41.836Z,59.49
2023-10-01T02:20:46.073Z,59.05
2023-10-01T02:23:49.169Z,59.81
2023-10-01T02:26:54.387Z,59.24
2023-10-01T02:30:16.380Z,59.20
2023-10-01T02:33:22.506Z,59.76
2023-10-01T02:36:27.448Z,59.55
2023-10-01T02:39:30.599Z,59.29
2023-10-01T02:42:33.675Z,59.29
2023-10-01T02:45:42.550Z,59.99
2023-10-01T02:48:48.868Z,60.37
2023-10-01T02:51:52.183Z,61.77
2023-10-01T02:54:59.171Z,62.59
2023-10-01T02:58:18.891Z,63.12
2023-10-01T03:01:22.642Z,63.98
2023-10-01T03:04:28.919Z,63.34
2023-10-01T03:07:40.190Z,64.43
2023-10-01T03:10:47.931Z,65.43
2023-10-01T03:13:53.008Z,65.30
2023-10-01T03:16:56.960Z,65.08
2023-10-01T03:20:13.752Z,64.55
2023-10-01T03:23:28.899Z,65.65
2023-10-01T03:26:34.611Z,66.40
2023-10-01T03:29:38.457Z,66.85
2023-10-01T03:33:17.302Z,67.13
2023-10-01T03:36:26.361Z,67.08
2023-10-01T03:39:29.555Z,67.02
2023-10-01T03:42:34.994Z,67.56
2023-10-01T03:45:53.393Z,68.29
2023-10-01T03:49:02.718Z,67.47
2023-10-01T03:52:10.867Z,68.27
2023-10-01T03:55:29.770Z,69.80
2023-10-01T03:58:37.616Z,68.41
2023-10-01T04:01:59.774Z,68.34
2023-10-01T04:05:06.796Z,68.96
2023-10-01T04:08:11.411Z,68.64
2023-10-01T04:11:16.621Z,67.60
2023-10-01T04:14:19.730Z,67.32
2023-10-01T04:17:27.269Z,69.68
2023-10-01T04:20:30.993Z,69.24
2023-10-01T04:23:42.249Z,70.68
2023-10-01T04:26:46.774Z,70.27
2023-10-01T04:29:58.641Z,69.77
2023-10-01T04:33:18.002Z,70.84
2023-10-01T04:36:21.839Z,71.06
2023-10-01T04:39:24.920Z,70.13
2023-10-01T04:42:27.857Z,70.26
2023-10-01T04:45:42.544Z,70.42
2023-10-01T04:48:46.483Z,71.62
2023-10-01T04:51:49.332Z,72.33
2023-10-01T04:54:53.437Z,72.54
2023-10-01T04:57:58.409Z,72.37
2023-10-01T05:01:03.192Z,72.02
2023-10-01T05:04:15.037Z,71.90
2023-10-01T05:07:18.245Z,71.64
2023-10-01T05:10:21.429Z,71.63
2023-10-01T05:13:24.604Z,72.10
2023-10-01T05:16:28.146Z,72.39
2023-10-01T05:19:31.306Z,72.25
2023-10-01T05:22:47.976Z,72.47
2023-10-01T05:25:51.869Z,71.51
2023-10-01T05:28:55.869Z,70.84
2023-10-01T05:31:58.790Z,70.49
2023-10-01T05:35:16.223Z,71.48
2023-10-01T05:38:20.476Z,70.91
2023-10-01T05:41:34.125Z,69.36
2023-10-01T05:44:37.280Z,67.75
2023-10-01T05:47:42.970Z,68.59
2023-10-01T05:50:48.968Z,67.59
2023-10-01T05:53:53.396Z,69.61
2023-10-01T05:56:56.646Z,70.22
2023-10-01T06:00:01.390Z,69.71
2023-10-01T06:03:16.663Z,68.07
2023-10-01T06:06:26.183Z,66.08
2023-10-01T06:09:34.332Z,68.30
2023-10-01T06:12:51.765Z,67.98
2023-10-01T06:15:57.444Z,65.71
2023-10-01T06:19:01.520Z,66.09
2023-10-01T06:22:14.525Z,65.89
2023-10-01T06:25:17.854Z,66.26
2023-10-01T06:28:24.747Z,65.76
2023-10-01T06:31:28.523Z,65.79
2023-10-01T06:34:40.571Z,64.56
2023-10-01T06:37:51.994Z,65.44
2023-10-01T06:40:54.999Z,63.50
2023-10-01T06:43:58.093Z,63.87
2023-10-01T06:47:15.926Z,64.64
2023-10-01T06:50:22.119Z,62.62
2023-10-01T06:53:45.107Z,60.69
2023-10-01T06:56:49.416Z,60.24
2023-10-01T06:59:52.523Z,59.81
2023-10-01T07:03:15.052Z,60.62
2023-10-01T07:06:17.925Z,57.77
2023-10-01T07:09:26.286Z,53.99
2023-10-01T07:12:30.652Z,53.39
2023-10-01T07:15:41.322Z,53.63
2023-10-01T07:18:45.400Z,53.05
2023-10-01T07:21:58.115Z,53.46
2023-10-01T07:25:04.765Z,52.98
2023-10-01T07:28:08.675Z,51.91
2023-10-01T07:31:14.643Z,53.12
2023-10-01T07:34:18.073Z,52.98
2023-10-01T07:37:27.612Z,53.02
2023-10-01T07:40:50.884Z,51.38
2023-10-01T07:43:56.539Z,50.06
2023-10-01T07:47:02.223Z,50.63
2023-10-01T07:50:13.908Z,49.91
2023-10-01T07:53:17.014Z,51.29
2023-10-01T07:56:23.217Z,50.35
2023-10-01T07:59:35.710Z,50.72
2023-10-01T08:02:58.955Z,51.33
2023-10-01T08:06:18.050Z,51.17
2023-10-01T08:09:22.877Z,50.27
2023-10-01T08:12:30.629Z,48.52
2023-10-01T08:15:40.552Z,48.37
2023-10-01T08:18:47.639Z,48.82
2023-10-01T08:21:55.181Z,47.31
2023-10-01T08:25:02.653Z,47.28
2023-10-01T08:28:15.178Z,46.86
2023-10-01T08:31:50.370Z,46.52
2023-10-01T08:35:02.983Z,46.80
2023-10-01T08:38:16.965Z,46.31
2023-10-01T08:41:36.189Z,45.38
2023-10-01T08:44:50.906Z,44.79
2023-10-01T08:48:01.166Z,45.54
2023-10-01T08:51:12.462Z,44.60
2023-10-01T08:54:18.794Z,44.81
2023-10-01T08:57:38.199Z,44.95
2023-10-01T09:00:49.759Z,43.97
2023-10-01T09:03:53.230Z,44.08
2023-10-01T09:07:05.556Z,44.71
2023-10-01T09:10:10.834Z,45.28
2023-10-01T09:13:22.179Z,44.94
2023-10-01T09:16:35.453Z,44.69
2023-10-01T09:19:52.074Z,46.48
2023-10-01T09:23:02.320Z,45.16
2023-10-01T09:26:05.091Z,45.96
2023-10-01T09:29:22.293Z,46.59
2023-10-01T09:32:53.130Z,46.42
2023-10-01T09:36:04.294Z,45.64
2023-10-01T09:39:08.181Z,45.72
2023-10-01T09:42:26.168Z,46.58
2023-10-01T09:45:42.933Z,45.94
2023-10-01T09:48:50.422Z,46.17
2023-10-01T09:51:56.547Z,44.61
2023-10-01T09:55:08.640Z,43.86
2023-10-01T09:58:13.355Z,44.87
2023-10-01T10:01:19.147Z,44.11
2023-10-01T10:04:24.574Z,44.44
2023-10-01T10:07:27.622Z,44.92
2023-10-01T10:10:31.173Z,44.49
2023-10-01T10:13:38.450Z,43.56
2023-10-01T10:16:59.074Z,44.86
2023-10-01T10:20:35.095Z,45.08
2023-10-01T10:24:19.181Z,44.04
2023-10-01T10:27:48.016Z,43.20
2023-10-01T10:31:33.024Z,43.89
2023-10-01T10:34:38.238Z,44.30
2023-10-01T10:37:46.380Z,45.42
2023-10-01T10:41:08.730Z,44.35
2023-10-01T10:44:11.955Z,44.25
2023-10-01T10:47:16.768Z,44.18
2023-10-01T10:50:20.684Z,44.09
2023-10-01T10:53:31.140Z,43.06
2023-10-01T10:56:40.849Z,42.27
2023-10-01T10:59:48.884Z,42.09
2023-10-01T11:02:58.297Z,42.04
2023-10-01T11:06:18.286Z,42.90
2023-10-01T11:09:28.256Z,42.65
2023-10-01T11:12:36.644Z,42.26
2023-10-01T11:15:44.312Z,42.13
2023-10-01T11:18:49.137Z,43.08
2023-10-01T11:21:59.924Z,41.92
2023-10-01T11:25:04.973Z,41.94
2023-10-01T11:28:07.986Z,41.99
2023-10-01T11:31:24.571Z,42.62
2023-10-01T11:34:44.704Z,42.73
2023-10-01T11:37:47.959Z,42.46
2023-10-01T11:41:11.277Z,42.89
2023-10-01T11:44:26.217Z,42.88
2023-10-01T11:48:06.187Z,42.38
2023-10-01T11:51:10.129Z,42.92
2023-10-01T11:54:15.239Z,43.31
2023-10-01T11:57:23.797Z,42.88
2023-10-01T12:00:45.284Z,42.68
2023-10-01T12:03:59.440Z,44.05
2023-10-01T12:07:02.285Z,43.50
2023-10-01T12:10:06.554Z,42.88
2023-10-01T12:13:11.721Z,43.49
2023-10-01T12:16:14.655Z,43.32
2023-10-01T12:19:26.855Z,43.79
2023-10-01T12:22:31.237Z,43.81
2023-10-01T12:25:51.520Z,44.12
2023-10-01T12:29:13.947Z,44.43
2023-10-01T12:32:18.085Z,44.34
2023-10-01T12:35:30.503Z,45.42
2023-10-01T12:38:33.528Z,45.54
2023-10-01T12:41:54.523Z,45.68
2023-10-01T12:45:14.704Z,45.55
2023-10-01T12:48:21.623Z,45.61
2023-10-01T12:51:34.179Z,45.85
2023-10-01T12:54:38.223Z,45.82
2023-10-01T12:57:42.909Z,46.32
2023-10-01T13:00:46.515Z,46.11
2023-10-01T13:03:50.827Z,45.55
2023-10-01T13:07:12.841Z,45.93
2023-10-01T13:10:20.109Z,45.43
2023-10-01T13:13:31.115Z,46.15
2023-10-01T13:16:35.010Z,46.22
2023-10-01T13:19:37.974Z,46.43
2023-10-01T13:22:43.046Z,46.19
2023-10-01T13:25:47.894Z,47.69
2023-10-01T13:28:52.702Z,47.02
2023-10-01T13:32:04.138Z,47.40
2023-10-01T13:35:27.569Z,46.84
2023-10-01T13:38:34.512Z,47.32
2023-10-01T13:41:37.864Z,47.58
2023-10-01T13:44:59.976Z,46.94
2023-10-01T13:48:21.219Z,46.68
2023-10-01T13:51:42.797Z,45.58
2023-10-01T13:55:04.324Z,46.42
2023-10-01T13:58:26.574Z,44.98
2023-10-01T14:01:48.618Z,45.03
2023-10-01T14:05:10.241Z,46.03
2023-10-01T14:08:32.276Z,46.20
2023-10-01T14:11:41.426Z,46.14
2023-10-01T14:14:45.897Z,46.27
2023-10-01T14:17:59.315Z,46.83
2023-10-01T14:21:13.792Z,46.20
2023-10-01T14:24:25.898Z,46.71
2023-10-01T14:27:30.983Z,47.23
2023-10-01T14:30:34.190Z,47.34
2023-10-01T14:33:41.358Z,47.60
2023-10-01T14:36:45.298Z,47.16
2023-10-01T14:39:49.021Z,47.63
2023-10-01T14:43:00.260Z,48.14
2023-10-01T14:46:03.470Z,48.36
2023-10-01T14:49:06.452Z,48.90
2023-10-01T14:52:24.292Z,48.43
2023-10-01T14:55:34.636Z,49.30
2023-10-01T14:58:38.134Z,49.69
2023-10-01T15:01:46.582Z,49.73
2023-10-01T15:04:49.850Z,50.33
2023-10-01T15:07:52.966Z,50.09
2023-10-01T15:10:58.970Z,50.35
2023-10-01T15:14:13.050Z,50.04
2023-10-01T15:17:19.277Z,50.27
2023-10-01T15:20:48.443Z,50.49
2023-10-01T15:24:00.456Z,50.89
2023-10-01T15:27:06.087Z,51.43
2023-10-01T15:30:22.676Z,51.07
2023-10-01T15:33:26.889Z,51.99
2023-10-01T15:36:49.867Z,51.58
2023-10-01T15:39:52.866Z,51.67
2023-10-01T15:42:57.182Z,51.33
2023-10-01T15:46:14.050Z,51.77
2023-10-01T15:49:21.636Z,52.62
2023-10-01T15:52:26.482Z,52.33
2023-10-01T15:55:33.415Z,53.00
2023-10-01T15:58:37.701Z,53.90
2023-10-01T16:01:52.132Z,55.06
2023-10-01T16:05:00.950Z,54.01
2023-10-01T16:08:04.856Z,55.02
2023-10-01T16:11:10.378Z,55.17
2023-10-01T16:14:27.918Z,55.95
2023-10-01T16:17:33.875Z,55.98
2023-10-01T16:20:39.755Z,56.25
2023-10-01T16:23:43.571Z,56.57
2023-10-01T16:26:47.999Z,57.04
2023-10-01T16:29:51.112Z,57.63
2023-10-01T16:32:55.044Z,58.37
2023-10-01T16:36:08.272Z,57.77
2023-10-01T16:39:19.283Z,58.04
2023-10-01T16:42:24.640Z,58.30
2023-10-01T16:45:32.934Z,58.80
2023-10-01T16:48:35.791Z,59.39
2023-10-01T16:51:42.905Z,60.01
2023-10-01T16:54:49.266Z,59.75
2023-10-01T16:57:57.822Z,60.04
2023-10-01T17:01:13.721Z,59.67
2023-10-01T17:04:29.722Z,60.13
2023-10-01T17:07:40.025Z,60.68
2023-10-01T17:10:46.148Z,61.21
2023-10-01T17:13:49.426Z,61.58
2023-10-01T17:16:52.757Z,61.65
2023-10-01T17:20:15.231Z,61.40
2023-10-01T17:23:22.586Z,61.33
2023-10-01T17:26:29.464Z,62.08
2023-10-01T17:29:34.571Z,62.83
2023-10-01T17:32:37.490Z,62.26
2023-10-01T17:35:48.810Z,62.74
2023-10-01T17:38:55.241Z,62.61
2023-10-01T17:42:01.225Z,63.24
2023-10-01T17:45:05.206Z,64.65
2023-10-01T17:48:17.812Z,64.69
2023-10-01T17:51:24.442Z,64.17
2023-10-01T17:54:29.081Z,64.55
2023-10-01T17:57:42.642Z,64.57
2023-10-01T18:00:52.629Z,65.57
2023-10-01T18:03:59.326Z,65.50
2023-10-01T18:07:04.166Z,66.34
2023-10-01T18:10:26.701Z,66.19
2023-10-01T18:13:29.887Z,66.04
2023-10-01T18:16:34.382Z,66.04
2023-10-01T18:19:50.847Z,66.25
2023-10-01T18:22:59.482Z,66.48
2023-10-01T18:26:05.068Z,67.21
2023-10-01T18:29:16.038Z,67.23
2023-10-01T18:32:19.879Z,67.86
2023-10-01T18:35:25.901Z,66.91
2023-10-01T18:38:35.046Z,67.71
2023-10-01T18:41:42.118Z,68.10
2023-10-01T18:44:45.382Z,68.44
2023-10-01T18:47:50.835Z,67.86
2023-10-01T18:50:58.017Z,68.87
2023-10-01T18:54:01.269Z,68.69
2023-10-01T18:57:05.273Z,68.98
2023-10-01T19:00:22.356Z,69.02
2023-10-01T19:03:26.501Z,69.83
2023-10-01T19:06:33.851Z,68.91
2023-10-01T19:09:36.915Z,69.44
2023-10-01T19:12:40.733Z,70.48
2023-10-01T19:15:45.083Z,70.06
2023-10-01T19:18:54.007Z,69.98
2023-10-01T19:21:58.437Z,69.80
2023-10-01T19:25:04.745Z,70.63
2023-10-01T19:28:09.569Z,70.40
2023-10-01T19:31:14.058Z,70.88
2023-10-01T19:34:21.316Z,71.45
2023-10-01T19:37:28.624Z,71.62
2023-10-01T19:40:35.190Z,70.97
2023-10-01T19:43:40.881Z,71.17
2023-10-01T19:46:43.922Z,71.57
2023-10-01T19:49:50.179Z,70.86
2023-10-01T19:52:56.037Z,71.19
2023-10-01T19:56:08.469Z,71.07
2023-10-01T19:59:17.600Z,71.52
2023-10-01T20:02:34.032Z,71.17
2023-10-01T20:05:41.824Z,71.61
2023-10-01T20:08:48.989Z,71.80
2023-10-01T20:12:00.374Z,71.87
2023-10-01T20:15:05.211Z,71.88
2023-10-01T20:18:14.758Z,71.79
2023-10-01T20:21:23.834Z,72.31
2023-10-01T20:24:29.516Z,72.01
2023-10-01T20:27:36.017Z,72.51
2023-10-01T20:30:43.383Z,72.93
2023-10-01T20:33:53.066Z,73.02
2023-10-01T20:37:00.300Z,72.87
2023-10-01T20:40:16.314Z,72.75
2023-10-01T20:43:27.955Z,73.85
2023-10-01T20:46:31.647Z,73.78
2023-10-01T20:49:44.890Z,73.54
2023-10-01T20:52:48.570Z,73.82
2023-10-01T20:55:51.951Z,74.18
2023-10-01T20:58:58.208Z,74.23
2023-10-01T21:02:06.301Z,74.25
2023-10-01T21:05:15.278Z,74.48
2023-10-01T21:08:19.776Z,74.58
2023-10-01T21:11:27.754Z,74.96
2023-10-01T21:14:38.562Z,74.56
2023-10-01T21:17:48.600Z,74.49
2023-10-01T21:20:59.657Z,74.08
2023-10-01T21:24:03.738Z,73.96
2023-10-01T21:27:12.075Z,74.55
2023-10-01T21:30:17.301Z,74.22
2023-10-01T21:33:21.936Z,74.78
2023-10-01T21:36:24.699Z,74.47
2023-10-01T21:39:28.007Z,74.80
2023-10-01T21:42:33.654Z,75.42
2023-10-01T21:45:41.736Z,74.76
2023-10-01T21:48:45.274Z,74.97
2023-10-01T21:51:48.346Z,75.16
2023-10-01T21:54:51.646Z,74.70
2023-10-01T21:57:55.098Z,75.56
2023-10-01T22:01:03.705Z,75.55
2023-10-01T22:04:29.411Z,75.99
2023-10-01T22:07:32.420Z,75.31
2023-10-01T22:10:41.506Z,75.46
2023-10-01T22:13:44.658Z,75.85
2023-10-01T22:16:54.338Z,75.77
2023-10-01T22:19:58.710Z,75.57
2023-10-01T22:23:05.053Z,75.44
2023-10-01T22:26:11.336Z,75.55
2023-10-01T22:29:15.891Z,76.05
2023-10-01T22:32:19.037Z,76.33
2023-10-01T22:35:26.456Z,76.63
2023-10-01T22:38:32.923Z,77.51
2023-10-01T22:41:35.820Z,76.86
2023-10-01T22:44:40.292Z,77.01
2023-10-01T22:47:48.863Z,77.26
2023-10-01T22:50:56.340Z,77.04
2023-10-01T22:54:06.188Z,77.35
2023-10-01T22:57:11.071Z,77.90
2023-10-01T23:00:22.966Z,77.57
2023-10-01T23:03:28.254Z,78.02
2023-10-01T23:06:31.359Z,77.41
2023-10-01T23:09:34.535Z,77.64
2023-10-01T23:12:41.641Z,78.11
2023-10-01T23:15:50.400Z,77.59
2023-10-01T23:19:13.200Z,78.02
2023-10-01T23:22:18.668Z,77.76
2023-10-01T23:25:25.076Z,78.04
2023-10-01T23:28:32.567Z,78.51
2023-10-01T23:31:49.235Z,78.69
2023-10-01T23:34:58.444Z,80.13
2023-10-01T23:38:21.238Z,79.81
2023-10-01T23:41:52.127Z,79.37
2023-10-01T23:44:55.270Z,79.12
2023-10-01T23:48:06.723Z,79.53
2023-10-01T23:51:10.265Z,79.92
2023-10-01T23:54:13.062Z,80.41
2023-10-01T23:57:16.295Z,79.96
